Time;durP1;ratioP1;P1;durP2;ratioP2;P2;SDS_P1;SDS_P2;PMS_P1;PMS_P2;Temp;Humidity;BMP_temperature;BMP_pressure;BME280_temperature;BME280_humidity;BME280_pressure;Samples;Min_cycle;Max_cycle;Signal;HPM_P1;HPM_P2
2022/03/04 00:02:04;;;;;;;17.17;7.68;;;;;;;;;;5081093;27;20094;-75
2022/03/04 00:04:30;;;;;;;12.95;7.40;;;;;;;;;;5081883;28;20051;-75
2022/03/04 00:06:56;;;;;;;17.88;6.88;;;;;;;;;;5094105;27;20152;-76
2022/03/04 00:09:22;;;;;;;15.50;8.23;;;;;;;;;;5075359;28;20039;-75
2022/03/04 00:11:49;;;;;;;16.52;7.63;;;;;;;;;;5079100;28;20055;-75
2022/03/04 00:14:16;;;;;;;17.13;8.10;;;;;;;;;;5098772;27;20035;-76
2022/03/04 00:16:42;;;;;;;13.77;6.68;;;;;;;;;;5078657;28;20114;-76
2022/03/04 00:19:09;;;;;;;14.43;6.43;;;;;;;;;;5099492;27;20035;-75
2022/03/04 00:21:37;;;;;;;18.05;7.40;;;;;;;;;;5076842;28;20044;-75
2022/03/04 00:24:03;;;;;;;14.07;7.38;;;;;;;;;;5094147;27;20066;-75
2022/03/04 00:26:29;;;;;;;12.02;5.57;;;;;;;;;;5095028;27;20540;-75
2022/03/04 00:28:56;;;;;;;16.42;7.05;;;;;;;;;;5081648;27;20051;-75
2022/03/04 00:31:22;;;;;;;15.88;7.13;;;;;;;;;;5073472;27;20522;-75
2022/03/04 00:33:48;;;;;;;13.40;7.57;;;;;;;;;;5073922;27;20867;-75
2022/03/04 00:36:15;;;;;;;15.27;7.00;;;;;;;;;;5092650;27;20425;-75
2022/03/04 00:38:41;;;;;;;16.20;5.80;;;;;;;;;;5099254;27;20070;-76
2022/03/04 00:41:07;;;;;;;11.13;5.53;;;;;;;;;;5075124;27;20036;-75
2022/03/04 00:43:33;;;;;;;12.82;6.53;;;;;;;;;;5075081;27;20048;-75
2022/03/04 00:46:00;;;;;;;16.20;7.70;;;;;;;;;;5099816;27;20049;-75
2022/03/04 00:48:26;;;;;;;17.88;8.00;;;;;;;;;;5078872;27;20038;-75
2022/03/04 00:50:52;;;;;;;18.15;6.80;;;;;;;;;;5094736;27;20072;-75
2022/03/04 00:53:18;;;;;;;14.38;6.13;;;;;;;;;;5075363;27;20542;-76
2022/03/04 00:55:44;;;;;;;15.52;8.05;;;;;;;;;;5076283;27;20039;-75
2022/03/04 00:58:10;;;;;;;15.82;6.55;;;;;;;;;;5074353;27;20040;-76
2022/03/04 01:00:37;;;;;;;13.43;6.57;;;;;;;;;;5092662;27;20450;-75
2022/03/04 01:03:03;;;;;;;14.45;6.95;;;;;;;;;;5076350;28;20053;-75
2022/03/04 01:05:30;;;;;;;14.85;7.25;;;;;;;;;;5078241;28;20548;-76
2022/03/04 01:07:57;;;;;;;15.40;8.40;;;;;;;;;;5077265;28;20051;-76
2022/03/04 01:10:23;;;;;;;13.80;7.13;;;;;;;;;;5075617;27;20043;-76
2022/03/04 01:12:50;;;;;;;13.70;6.65;;;;;;;;;;5079966;27;20047;-75
2022/03/04 01:15:16;;;;;;;14.02;7.57;;;;;;;;;;5096143;27;21015;-75
2022/03/04 01:17:42;;;;;;;11.98;6.88;;;;;;;;;;5070002;28;20144;-75
2022/03/04 01:20:08;;;;;;;12.73;6.35;;;;;;;;;;5088052;27;20044;-76
2022/03/04 01:22:35;;;;;;;17.20;7.15;;;;;;;;;;5087616;27;20501;-76
2022/03/04 01:25:01;;;;;;;10.65;5.78;;;;;;;;;;5073414;28;20074;-75
2022/03/04 01:27:27;;;;;;;11.13;5.95;;;;;;;;;;5074024;28;20549;-75
2022/03/04 01:29:53;;;;;;;14.90;6.75;;;;;;;;;;5071263;28;20056;-75
2022/03/04 01:32:19;;;;;;;12.95;8.00;;;;;;;;;;5072871;28;20039;-75
2022/03/04 01:34:45;;;;;;;12.55;7.28;;;;;;;;;;5073992;27;20074;-75
2022/03/04 01:37:11;;;;;;;13.32;6.50;;;;;;;;;;5073741;28;20040;-75
2022/03/04 01:39:37;;;;;;;12.13;5.47;;;;;;;;;;5090183;27;20058;-75
2022/03/04 01:42:04;;;;;;;13.88;7.57;;;;;;;;;;5070347;27;20068;-75
2022/03/04 01:44:30;;;;;;;13.75;6.95;;;;;;;;;;5097816;27;20049;-75
2022/03/04 01:46:56;;;;;;;12.93;6.72;;;;;;;;;;5071704;27;20045;-75
2022/03/04 01:49:22;;;;;;;13.13;6.55;;;;;;;;;;5075399;27;20040;-75
2022/03/04 01:51:48;;;;;;;20.70;6.85;;;;;;;;;;5092386;27;20048;-75
2022/03/04 01:54:14;;;;;;;13.60;6.60;;;;;;;;;;5075873;27;20105;-75
2022/03/04 01:56:41;;;;;;;13.27;6.82;;;;;;;;;;5091427;27;20498;-75
2022/03/04 01:59:07;;;;;;;13.48;6.90;;;;;;;;;;5077770;27;20529;-75
2022/03/04 02:01:34;;;;;;;12.75;7.00;;;;;;;;;;5070215;27;20129;-75
2022/03/04 02:04:00;;;;;;;15.93;7.53;;;;;;;;;;5070890;27;20308;-75
2022/03/04 02:06:26;;;;;;;8.93;5.75;;;;;;;;;;5077812;27;20043;-75
2022/03/04 02:08:52;;;;;;;12.25;7.05;;;;;;;;;;5074445;27;20039;-75
2022/03/04 02:11:19;;;;;;;12.35;6.53;;;;;;;;;;5089335;27;20123;-75
2022/03/04 02:13:45;;;;;;;11.50;6.80;;;;;;;;;;5090340;27;20474;-75
2022/03/04 02:16:19;;;;;;;15.38;6.63;;;;;;;;;;5094935;27;20040;-75
2022/03/04 02:18:46;;;;;;;10.00;5.97;;;;;;;;;;5072651;27;20041;-75
2022/03/04 02:21:13;;;;;;;11.52;5.32;;;;;;;;;;5078643;27;20040;-75
2022/03/04 02:23:40;;;;;;;13.35;6.85;;;;;;;;;;5092645;27;20044;-75
2022/03/04 02:26:06;;;;;;;12.60;6.22;;;;;;;;;;5098874;27;20034;-75
2022/03/04 02:28:32;;;;;;;12.82;5.45;;;;;;;;;;5075188;27;20051;-75
2022/03/04 02:30:58;;;;;;;11.35;5.97;;;;;;;;;;5095174;27;20127;-75
2022/03/04 02:33:24;;;;;;;14.55;6.90;;;;;;;;;;5077239;27;20040;-75
2022/03/04 02:35:50;;;;;;;10.70;6.43;;;;;;;;;;5070524;28;21243;-75
2022/03/04 02:38:16;;;;;;;11.15;5.97;;;;;;;;;;5078009;27;20052;-75
2022/03/04 02:40:42;;;;;;;11.20;6.25;;;;;;;;;;5093567;27;20044;-75
2022/03/04 02:43:09;;;;;;;15.40;6.03;;;;;;;;;;5080476;28;20620;-75
2022/03/04 02:45:35;;;;;;;12.05;7.15;;;;;;;;;;5098205;27;20040;-75
2022/03/04 02:48:01;;;;;;;13.30;4.85;;;;;;;;;;5093765;27;20041;-75
2022/03/04 02:50:27;;;;;;;11.10;5.50;;;;;;;;;;5078312;28;20942;-75
2022/03/04 02:52:53;;;;;;;12.07;6.13;;;;;;;;;;5096892;27;20113;-76
2022/03/04 02:55:19;;;;;;;10.80;7.00;;;;;;;;;;5071656;28;20036;-75
2022/03/04 02:57:48;;;;;;;11.75;6.57;;;;;;;;;;5090464;27;20892;-75
2022/03/04 03:00:15;;;;;;;13.20;6.13;;;;;;;;;;5099105;27;20048;-75
2022/03/04 03:02:42;;;;;;;13.60;6.45;;;;;;;;;;5077242;28;20067;-75
2022/03/04 03:05:09;;;;;;;11.07;5.43;;;;;;;;;;5077143;28;20040;-77
2022/03/04 03:07:35;;;;;;;11.18;6.25;;;;;;;;;;5076366;27;20546;-75
2022/03/04 03:10:01;;;;;;;11.30;6.00;;;;;;;;;;5076289;27;20048;-76
2022/03/04 03:12:27;;;;;;;12.90;6.70;;;;;;;;;;5082860;27;20059;-75
2022/03/04 03:14:54;;;;;;;12.55;6.28;;;;;;;;;;5081591;27;20047;-75
2022/03/04 03:17:20;;;;;;;12.18;5.60;;;;;;;;;;5085779;27;20040;-75
2022/03/04 03:19:47;;;;;;;16.20;6.47;;;;;;;;;;5076388;27;20040;-75
2022/03/04 03:22:16;;;;;;;17.77;6.82;;;;;;;;;;5076788;27;20039;-75
2022/03/04 03:24:42;;;;;;;12.68;5.90;;;;;;;;;;5076790;27;20087;-75
2022/03/04 03:27:08;;;;;;;9.80;5.45;;;;;;;;;;5076026;27;20036;-75
2022/03/04 03:29:34;;;;;;;10.48;6.53;;;;;;;;;;5096613;27;20050;-75
2022/03/04 03:32:01;;;;;;;12.70;6.55;;;;;;;;;;5075817;28;20044;-75
2022/03/04 03:34:27;;;;;;;12.20;5.22;;;;;;;;;;5076931;27;20120;-76
2022/03/04 03:36:53;;;;;;;11.95;6.07;;;;;;;;;;5077647;27;20040;-76
2022/03/04 03:39:19;;;;;;;12.43;5.68;;;;;;;;;;5081417;27;20044;-75
2022/03/04 03:41:45;;;;;;;20.77;7.32;;;;;;;;;;5073011;27;20562;-75
2022/03/04 03:44:11;;;;;;;10.02;6.43;;;;;;;;;;5097019;27;20119;-76
2022/03/04 03:46:37;;;;;;;13.43;5.28;;;;;;;;;;5092261;27;20044;-76
2022/03/04 03:49:04;;;;;;;14.90;8.02;;;;;;;;;;5075951;27;20571;-76
2022/03/04 03:51:30;;;;;;;11.45;6.72;;;;;;;;;;5089704;27;20196;-76
2022/03/04 03:54:00;;;;;;;11.60;6.15;;;;;;;;;;5091883;27;20036;-76
2022/03/04 03:56:26;;;;;;;10.05;5.20;;;;;;;;;;5073055;28;20036;-75
2022/03/04 03:58:52;;;;;;;13.70;6.60;;;;;;;;;;5079925;28;20045;-76
2022/03/04 04:01:20;;;;;;;11.18;6.05;;;;;;;;;;5073229;28;20059;-75
2022/03/04 04:03:46;;;;;;;11.98;5.85;;;;;;;;;;5076402;28;20779;-76
2022/03/04 04:06:12;;;;;;;13.10;5.63;;;;;;;;;;5073449;28;20139;-75
2022/03/04 04:08:38;;;;;;;15.75;5.93;;;;;;;;;;5092288;27;20585;-75
2022/03/04 04:11:04;;;;;;;12.38;6.47;;;;;;;;;;5075886;27;20105;-76
2022/03/04 04:13:30;;;;;;;9.85;5.93;;;;;;;;;;5095293;27;20040;-75
2022/03/04 04:15:56;;;;;;;11.02;5.30;;;;;;;;;;5075120;28;20043;-76
2022/03/04 04:18:22;;;;;;;12.93;6.45;;;;;;;;;;5075502;28;20040;-75
2022/03/04 04:20:49;;;;;;;10.95;5.80;;;;;;;;;;5076752;28;20039;-75
2022/03/04 04:23:15;;;;;;;12.65;6.10;;;;;;;;;;5088467;27;20477;-76
2022/03/04 04:25:41;;;;;;;16.38;8.85;;;;;;;;;;5066616;28;20051;-76
2022/03/04 04:28:07;;;;;;;18.70;9.35;;;;;;;;;;5090607;27;20051;-75
2022/03/04 04:30:33;;;;;;;19.00;8.27;;;;;;;;;;5074147;27;20115;-75
2022/03/04 04:32:59;;;;;;;15.02;6.93;;;;;;;;;;5079336;27;20083;-76
2022/03/04 04:35:25;;;;;;;15.30;8.75;;;;;;;;;;5074183;27;20102;-75
2022/03/04 04:37:51;;;;;;;12.25;6.70;;;;;;;;;;5076682;27;20043;-75
2022/03/04 04:40:18;;;;;;;15.43;7.07;;;;;;;;;;5084478;27;20039;-75
2022/03/04 04:42:44;;;;;;;16.90;8.35;;;;;;;;;;5077026;27;20040;-75
2022/03/04 04:45:11;;;;;;;18.20;7.20;;;;;;;;;;5076522;27;20058;-76
2022/03/04 04:47:39;;;;;;;11.18;5.72;;;;;;;;;;5076169;27;20083;-75
2022/03/04 04:50:06;;;;;;;12.98;6.70;;;;;;;;;;5075242;27;20998;-76
2022/03/04 04:52:32;;;;;;;13.68;7.47;;;;;;;;;;5071192;27;20152;-76
2022/03/04 04:54:58;;;;;;;11.43;5.65;;;;;;;;;;5088966;27;20517;-75
2022/03/04 04:57:24;;;;;;;11.18;4.90;;;;;;;;;;5073840;27;20434;-75
2022/03/04 04:59:50;;;;;;;12.25;6.88;;;;;;;;;;5090471;27;20032;-76
2022/03/04 05:02:16;;;;;;;11.10;5.68;;;;;;;;;;5090830;27;20059;-75
2022/03/04 05:04:43;;;;;;;12.50;5.72;;;;;;;;;;5076589;27;20136;-75
2022/03/04 05:07:09;;;;;;;8.63;5.80;;;;;;;;;;5076251;27;20530;-75
2022/03/04 05:09:35;;;;;;;13.38;5.40;;;;;;;;;;5072510;27;20074;-75
2022/03/04 05:12:01;;;;;;;12.95;5.95;;;;;;;;;;5077513;28;20063;-75
2022/03/04 05:14:27;;;;;;;10.88;5.68;;;;;;;;;;5075177;28;20040;-75
2022/03/04 05:16:53;;;;;;;9.18;5.43;;;;;;;;;;5081899;28;20127;-75
2022/03/04 05:19:19;;;;;;;14.32;5.03;;;;;;;;;;5080994;28;20036;-75
2022/03/04 05:21:46;;;;;;;16.10;5.38;;;;;;;;;;5091292;27;20072;-75
2022/03/04 05:24:12;;;;;;;9.07;4.63;;;;;;;;;;5067623;28;20086;-75
2022/03/04 05:26:39;;;;;;;10.82;5.35;;;;;;;;;;5075530;28;20049;-75
2022/03/04 05:29:09;;;;;;;10.38;4.82;;;;;;;;;;5096211;27;20043;-75
2022/03/04 05:31:35;;;;;;;10.82;5.10;;;;;;;;;;5088570;27;20123;-75
2022/03/04 05:34:01;;;;;;;14.73;5.35;;;;;;;;;;5093047;27;20051;-75
2022/03/04 05:36:27;;;;;;;11.70;4.90;;;;;;;;;;5092592;27;20128;-75
2022/03/04 05:38:54;;;;;;;12.40;5.07;;;;;;;;;;5073658;28;20129;-75
2022/03/04 05:41:20;;;;;;;12.20;6.22;;;;;;;;;;5097033;27;20061;-75
2022/03/04 05:43:47;;;;;;;9.35;5.75;;;;;;;;;;5096172;27;20609;-75
2022/03/04 05:46:13;;;;;;;11.27;5.75;;;;;;;;;;5074713;27;20032;-74
2022/03/04 05:48:39;;;;;;;15.45;4.90;;;;;;;;;;5092245;27;20509;-75
2022/03/04 05:51:06;;;;;;;12.55;6.03;;;;;;;;;;5071574;28;20093;-74
2022/03/04 05:53:32;;;;;;;10.35;7.40;;;;;;;;;;5095034;27;20077;-75
2022/03/04 05:56:00;;;;;;;16.30;6.78;;;;;;;;;;5092198;27;20048;-75
2022/03/04 05:58:27;;;;;;;11.93;5.78;;;;;;;;;;5091189;27;20105;-75
2022/03/04 06:00:53;;;;;;;11.80;6.30;;;;;;;;;;5072616;27;20095;-75
2022/03/04 06:03:22;;;;;;;13.57;6.53;;;;;;;;;;5088557;27;20047;-75
2022/03/04 06:05:48;;;;;;;13.27;5.57;;;;;;;;;;5075390;27;20048;-75
2022/03/04 06:08:14;;;;;;;11.95;5.45;;;;;;;;;;5073985;27;21108;-75
2022/03/04 06:10:40;;;;;;;13.20;6.00;;;;;;;;;;5075434;27;20115;-76
2022/03/04 06:13:13;;;;;;;11.18;6.07;;;;;;;;;;5079817;27;20052;-76
2022/03/04 06:15:40;;;;;;;12.02;5.47;;;;;;;;;;5077229;27;20040;-76
2022/03/04 06:18:06;;;;;;;10.00;5.85;;;;;;;;;;5078059;27;20596;-76
2022/03/04 06:20:32;;;;;;;9.35;4.82;;;;;;;;;;5081533;27;20039;-76
2022/03/04 06:22:58;;;;;;;16.33;5.45;;;;;;;;;;5066567;27;20085;-76
2022/03/04 06:25:25;;;;;;;11.75;5.45;;;;;;;;;;5082618;27;20086;-76
2022/03/04 06:27:58;;;;;;;11.93;5.80;;;;;;;;;;5077775;27;20040;-77
2022/03/04 06:30:25;;;;;;;13.65;5.30;;;;;;;;;;5094173;27;20047;-77
2022/03/04 06:33:29;;;;;;;9.95;4.68;;;;;;;;;;5077259;27;20036;-77
2022/03/04 06:35:38;;;;;;;10.75;5.05;;;;;;;;;;5094135;27;20048;-76
2022/03/04 06:38:07;;;;;;;14.30;6.00;;;;;;;;;;5076317;28;20045;-77
2022/03/04 06:40:33;;;;;;;10.80;4.90;;;;;;;;;;5078967;28;20067;-76
2022/03/04 06:42:59;;;;;;;11.43;6.28;;;;;;;;;;5094791;27;20044;-74
2022/03/04 06:45:25;;;;;;;14.48;5.72;;;;;;;;;;5076347;28;20048;-76
2022/03/04 06:47:51;;;;;;;15.15;6.57;;;;;;;;;;5079023;28;20048;-75
2022/03/04 06:50:18;;;;;;;10.02;5.18;;;;;;;;;;5095016;27;20038;-76
2022/03/04 06:52:44;;;;;;;11.55;5.15;;;;;;;;;;5074403;27;20050;-76
2022/03/04 06:55:10;;;;;;;12.27;6.55;;;;;;;;;;5072123;28;20126;-76
2022/03/04 06:57:37;;;;;;;11.65;5.85;;;;;;;;;;5087522;27;20607;-76
2022/03/04 07:00:07;;;;;;;12.68;6.63;;;;;;;;;;5074192;27;20532;-76
2022/03/04 07:02:34;;;;;;;9.85;5.25;;;;;;;;;;5093641;27;20072;-75
2022/03/04 07:05:04;;;;;;;11.95;5.43;;;;;;;;;;5090128;27;20048;-75
2022/03/04 07:07:31;;;;;;;13.75;5.88;;;;;;;;;;5096313;27;20076;-76
2022/03/04 07:10:18;;;;;;;14.52;5.82;;;;;;;;;;5062388;27;20596;-83
2022/03/04 07:12:44;;;;;;;17.23;6.32;;;;;;;;;;5099821;27;20066;-77
2022/03/04 07:15:11;;;;;;;8.90;4.88;;;;;;;;;;5079020;28;20133;-76
2022/03/04 07:17:39;;;;;;;11.90;5.25;;;;;;;;;;5082645;27;20048;-76
2022/03/04 07:20:06;;;;;;;10.85;5.45;;;;;;;;;;5077613;28;20040;-77
2022/03/04 07:22:35;;;;;;;14.95;5.80;;;;;;;;;;5075673;28;20044;-77
2022/03/04 07:25:06;;;;;;;12.55;5.50;;;;;;;;;;5073073;28;20514;-76
2022/03/04 07:27:35;;;;;;;15.95;5.82;;;;;;;;;;5072951;27;20051;-76
2022/03/04 07:30:02;;;;;;;11.20;4.70;;;;;;;;;;5077489;27;20067;-76
2022/03/04 07:32:28;;;;;;;9.95;4.82;;;;;;;;;;5077078;27;20040;-77
2022/03/04 07:34:57;;;;;;;10.23;5.47;;;;;;;;;;5074092;27;20557;-77
2022/03/04 07:37:23;;;;;;;13.20;6.15;;;;;;;;;;5094993;27;20036;-76
2022/03/04 07:39:49;;;;;;;7.88;4.65;;;;;;;;;;5077545;28;20048;-77
2022/03/04 07:42:18;;;;;;;11.63;5.00;;;;;;;;;;5075342;27;20634;-77
2022/03/04 07:44:44;;;;;;;12.10;5.07;;;;;;;;;;5079422;27;20056;-76
2022/03/04 07:47:10;;;;;;;10.38;5.38;;;;;;;;;;5095128;27;20036;-76
2022/03/04 07:49:36;;;;;;;10.45;5.05;;;;;;;;;;5093874;27;20050;-76
2022/03/04 07:52:03;;;;;;;11.90;6.03;;;;;;;;;;5091398;27;21853;-77
2022/03/04 07:54:29;;;;;;;10.13;5.05;;;;;;;;;;5077318;28;20051;-77
2022/03/04 07:56:55;;;;;;;16.65;6.93;;;;;;;;;;5071592;28;20124;-76
2022/03/04 07:59:22;;;;;;;15.55;6.93;;;;;;;;;;5076174;28;20044;-76
2022/03/04 08:01:48;;;;;;;10.43;5.63;;;;;;;;;;5076743;28;20053;-77
2022/03/04 08:04:14;;;;;;;17.42;7.18;;;;;;;;;;5074684;28;20040;-76
2022/03/04 08:06:41;;;;;;;13.00;5.65;;;;;;;;;;5076079;27;20036;-77
2022/03/04 08:09:07;;;;;;;20.90;9.07;;;;;;;;;;5092917;27;20098;-77
2022/03/04 08:11:34;;;;;;;11.88;5.60;;;;;;;;;;5079849;27;20039;-77
2022/03/04 08:14:00;;;;;;;12.50;5.38;;;;;;;;;;5092736;27;20043;-76
2022/03/04 08:16:29;;;;;;;11.30;5.13;;;;;;;;;;5077395;27;20508;-76
2022/03/04 08:18:56;;;;;;;12.60;5.32;;;;;;;;;;5095882;27;20040;-76
2022/03/04 08:21:25;;;;;;;10.57;4.63;;;;;;;;;;5073375;27;20048;-74
2022/03/04 08:23:51;;;;;;;11.10;4.38;;;;;;;;;;5080036;27;20551;-76
2022/03/04 08:26:20;;;;;;;10.65;5.35;;;;;;;;;;5075494;27;20048;-77
2022/03/04 08:28:47;;;;;;;11.88;5.28;;;;;;;;;;5071219;27;20040;-75
2022/03/04 08:31:13;;;;;;;14.82;6.30;;;;;;;;;;5077543;27;20176;-76
2022/03/04 08:33:40;;;;;;;15.18;7.90;;;;;;;;;;5072216;27;20048;-76
2022/03/04 08:36:06;;;;;;;22.35;7.68;;;;;;;;;;5096606;27;20040;-75
2022/03/04 08:38:32;;;;;;;17.75;7.80;;;;;;;;;;5071327;27;20597;-76
2022/03/04 08:40:58;;;;;;;21.38;8.05;;;;;;;;;;5087099;27;20518;-76
2022/03/04 08:43:24;;;;;;;19.42;8.25;;;;;;;;;;5075165;27;20041;-75
2022/03/04 08:45:50;;;;;;;18.77;7.95;;;;;;;;;;5090010;27;20584;-75
2022/03/04 08:48:16;;;;;;;17.52;7.53;;;;;;;;;;5075753;27;21764;-76
2022/03/04 08:50:42;;;;;;;19.83;8.38;;;;;;;;;;5078784;27;20028;-77
2022/03/04 08:53:09;;;;;;;20.08;8.32;;;;;;;;;;5087527;27;20048;-77
2022/03/04 08:55:35;;;;;;;21.08;9.15;;;;;;;;;;5075012;28;20032;-77
2022/03/04 08:58:01;;;;;;;23.17;8.48;;;;;;;;;;5074467;28;20051;-77
2022/03/04 09:00:28;;;;;;;24.77;8.98;;;;;;;;;;5076609;28;20075;-78
2022/03/04 09:02:54;;;;;;;20.45;9.13;;;;;;;;;;5068873;28;20080;-78
2022/03/04 09:05:20;;;;;;;26.65;8.35;;;;;;;;;;5067277;28;20987;-77
2022/03/04 09:07:47;;;;;;;14.13;7.07;;;;;;;;;;5070850;28;20032;-77
2022/03/04 09:10:13;;;;;;;17.65;7.88;;;;;;;;;;5072539;28;20045;-78
2022/03/04 09:12:39;;;;;;;24.77;9.20;;;;;;;;;;5074638;28;20134;-78
2022/03/04 09:15:07;;;;;;;18.67;9.90;;;;;;;;;;5063331;28;20037;-77
2022/03/04 09:17:33;;;;;;;22.85;9.10;;;;;;;;;;5071329;28;20045;-78
2022/03/04 09:19:59;;;;;;;23.75;9.32;;;;;;;;;;5073114;28;20037;-77
2022/03/04 09:22:25;;;;;;;27.15;10.85;;;;;;;;;;5069882;28;20032;-77
2022/03/04 09:24:52;;;;;;;17.63;8.23;;;;;;;;;;5067256;28;20111;-78
2022/03/04 09:27:18;;;;;;;17.55;9.75;;;;;;;;;;5069689;28;20570;-77
2022/03/04 09:29:45;;;;;;;21.52;9.48;;;;;;;;;;5073025;28;20040;-78
2022/03/04 09:32:11;;;;;;;22.80;9.77;;;;;;;;;;5069690;28;20049;-78
2022/03/04 09:34:37;;;;;;;21.60;9.10;;;;;;;;;;5067714;28;20040;-77
2022/03/04 09:37:04;;;;;;;20.98;8.38;;;;;;;;;;5068975;28;20039;-77
2022/03/04 09:39:30;;;;;;;17.05;7.00;;;;;;;;;;5065492;28;20072;-77
2022/03/04 09:41:56;;;;;;;19.20;8.57;;;;;;;;;;5065552;28;20111;-78
2022/03/04 09:44:22;;;;;;;19.13;7.50;;;;;;;;;;5069721;28;20048;-77
2022/03/04 09:46:49;;;;;;;20.80;8.77;;;;;;;;;;5070529;28;20045;-77
2022/03/04 09:49:16;;;;;;;16.73;7.75;;;;;;;;;;5068827;28;20731;-77
2022/03/04 09:51:42;;;;;;;21.33;7.57;;;;;;;;;;5069546;28;20075;-77
2022/03/04 09:54:08;;;;;;;17.77;7.68;;;;;;;;;;5067876;28;20047;-78
2022/03/04 09:56:34;;;;;;;24.58;9.73;;;;;;;;;;5062304;28;20037;-78
2022/03/04 09:59:00;;;;;;;19.77;9.90;;;;;;;;;;5067084;28;20055;-77
2022/03/04 10:01:26;;;;;;;17.48;7.65;;;;;;;;;;5072230;27;20585;-77
2022/03/04 10:03:53;;;;;;;21.65;9.10;;;;;;;;;;5070458;27;20050;-77
2022/03/04 10:06:20;;;;;;;19.10;7.75;;;;;;;;;;5094781;27;20525;-77
2022/03/04 10:08:48;;;;;;;17.85;9.38;;;;;;;;;;5071582;27;20083;-77
2022/03/04 10:11:24;;;;;;;16.95;7.75;;;;;;;;;;5087103;27;20774;-77
2022/03/04 10:13:52;;;;;;;17.70;7.97;;;;;;;;;;5070204;28;20581;-77
2022/03/04 10:16:24;;;;;;;19.48;8.85;;;;;;;;;;5071836;28;20036;-78
2022/03/04 10:19:06;;;;;;;17.70;7.80;;;;;;;;;;5074558;27;20044;-77
2022/03/04 10:21:47;;;;;;;16.13;7.80;;;;;;;;;;5087062;27;20044;-78
2022/03/04 10:24:14;;;;;;;23.75;8.63;;;;;;;;;;5071205;28;20037;-77
2022/03/04 10:26:40;;;;;;;18.20;7.05;;;;;;;;;;5076962;28;20666;-77
2022/03/04 10:29:17;;;;;;;19.02;7.93;;;;;;;;;;5075153;28;20051;-78
2022/03/04 10:32:03;;;;;;;18.48;8.93;;;;;;;;;;5071321;28;20044;-77
2022/03/04 10:34:29;;;;;;;14.45;6.05;;;;;;;;;;5085952;27;20090;-77
2022/03/04 10:36:55;;;;;;;18.20;7.32;;;;;;;;;;5075547;27;20041;-77
2022/03/04 10:39:22;;;;;;;22.85;7.47;;;;;;;;;;5071920;27;20067;-77
2022/03/04 10:41:51;;;;;;;14.02;6.30;;;;;;;;;;5071389;27;20049;-77
2022/03/04 10:44:29;;;;;;;14.55;7.07;;;;;;;;;;5074890;27;20076;-77
2022/03/04 10:46:59;;;;;;;17.88;8.45;;;;;;;;;;5065237;27;20055;-78
2022/03/04 10:49:26;;;;;;;13.73;6.13;;;;;;;;;;5072608;28;20044;-77
2022/03/04 10:52:04;;;;;;;21.73;8.38;;;;;;;;;;5075822;27;20044;-77
2022/03/04 10:54:31;;;;;;;14.25;5.97;;;;;;;;;;5069524;28;20032;-78
2022/03/04 10:56:57;;;;;;;18.23;7.93;;;;;;;;;;5090566;27;20070;-77
2022/03/04 10:59:23;;;;;;;19.00;9.05;;;;;;;;;;5088241;27;20484;-78
2022/03/04 11:01:50;;;;;;;18.23;8.32;;;;;;;;;;5068663;28;20056;-78
2022/03/04 11:04:17;;;;;;;15.07;7.00;;;;;;;;;;5074863;28;20048;-78
2022/03/04 11:06:45;;;;;;;17.05;6.40;;;;;;;;;;5077245;28;20040;-77
2022/03/04 11:09:12;;;;;;;11.38;5.05;;;;;;;;;;5072101;28;20043;-78
2022/03/04 11:11:41;;;;;;;15.00;6.38;;;;;;;;;;5094050;27;20783;-79
2022/03/04 11:14:07;;;;;;;10.70;5.78;;;;;;;;;;5098012;27;20043;-79
2022/03/04 11:16:33;;;;;;;11.82;5.55;;;;;;;;;;5090729;27;20098;-78
2022/03/04 11:18:59;;;;;;;14.30;6.07;;;;;;;;;;5077618;27;20087;-78
2022/03/04 11:21:25;;;;;;;12.60;6.18;;;;;;;;;;5076499;27;20047;-76
2022/03/04 11:23:53;;;;;;;7.03;3.85;;;;;;;;;;5076968;27;20039;-76
2022/03/04 11:26:20;;;;;;;16.02;5.75;;;;;;;;;;5092409;27;20040;-76
2022/03/04 11:28:50;;;;;;;13.95;6.50;;;;;;;;;;5095145;27;20040;-76
2022/03/04 11:31:20;;;;;;;11.75;4.13;;;;;;;;;;5075314;27;20577;-75
2022/03/04 11:33:51;;;;;;;12.38;5.03;;;;;;;;;;5092280;27;20036;-78
2022/03/04 11:36:18;;;;;;;8.60;5.03;;;;;;;;;;5071708;28;20047;-78
2022/03/04 11:38:46;;;;;;;12.65;5.43;;;;;;;;;;5088960;27;20044;-77
2022/03/04 11:41:17;;;;;;;15.10;5.93;;;;;;;;;;5077194;27;20052;-77
2022/03/04 11:44:10;;;;;;;8.90;4.53;;;;;;;;;;5093065;27;20070;-78
2022/03/04 11:46:55;;;;;;;16.10;6.25;;;;;;;;;;5071704;27;20125;-78
2022/03/04 11:49:24;;;;;;;14.05;6.20;;;;;;;;;;5083488;27;20493;-79
2022/03/04 11:52:09;;;;;;;14.05;4.90;;;;;;;;;;5088068;27;20113;-78
2022/03/04 11:54:39;;;;;;;12.63;6.18;;;;;;;;;;5072488;28;20033;-78
2022/03/04 11:57:15;;;;;;;13.65;5.35;;;;;;;;;;5076252;28;20044;-77
2022/03/04 11:59:48;;;;;;;14.43;5.75;;;;;;;;;;5086983;27;20047;-78
2022/03/04 12:02:34;;;;;;;13.02;6.25;;;;;;;;;;5075336;27;20056;-78
2022/03/04 12:05:13;;;;;;;9.73;3.70;;;;;;;;;;5089457;27;20493;-78
2022/03/04 12:07:41;;;;;;;9.43;3.85;;;;;;;;;;5092206;27;20043;-78
2022/03/04 12:10:16;;;;;;;9.38;4.45;;;;;;;;;;5069875;28;20047;-79
2022/03/04 12:13:01;;;;;;;14.65;6.80;;;;;;;;;;5075719;28;20114;-78
2022/03/04 12:15:32;;;;;;;7.68;3.17;;;;;;;;;;5071280;27;20036;-78
2022/03/04 12:18:03;;;;;;;10.95;4.53;;;;;;;;;;5090655;27;20119;-78
2022/03/04 12:20:38;;;;;;;9.13;3.75;;;;;;;;;;5086020;27;20131;-78
2022/03/04 12:23:09;;;;;;;7.32;4.07;;;;;;;;;;5089411;27;20051;-78
2022/03/04 12:25:56;;;;;;;8.90;3.60;;;;;;;;;;5077070;28;20043;-78
2022/03/04 12:28:31;;;;;;;8.77;4.53;;;;;;;;;;5091747;27;20556;-78
2022/03/04 12:31:01;;;;;;;7.55;4.70;;;;;;;;;;5069189;27;20066;-78
2022/03/04 12:33:30;;;;;;;6.10;4.03;;;;;;;;;;5077742;27;20105;-78
2022/03/04 12:35:57;;;;;;;13.27;4.70;;;;;;;;;;5075538;27;20044;-77
2022/03/04 12:38:24;;;;;;;6.75;3.92;;;;;;;;;;5074846;27;20036;-76
2022/03/04 12:40:50;;;;;;;6.30;3.20;;;;;;;;;;5071834;27;20048;-77
2022/03/04 12:43:16;;;;;;;6.95;4.32;;;;;;;;;;5075107;27;20106;-77
2022/03/04 12:45:42;;;;;;;8.90;3.85;;;;;;;;;;5089239;27;20049;-77
2022/03/04 12:48:09;;;;;;;8.73;3.67;;;;;;;;;;5073987;27;20122;-77
2022/03/04 12:50:35;;;;;;;7.95;4.85;;;;;;;;;;5073416;27;20047;-77
2022/03/04 12:53:22;;;;;;;8.73;3.78;;;;;;;;;;5094896;27;20065;-77
2022/03/04 12:55:49;;;;;;;5.18;2.72;;;;;;;;;;5070353;27;20036;-77
2022/03/04 12:58:15;;;;;;;7.68;4.90;;;;;;;;;;5068078;27;20052;-78
2022/03/04 13:00:41;;;;;;;11.25;5.47;;;;;;;;;;5070775;27;20075;-77
2022/03/04 13:03:20;;;;;;;7.35;3.17;;;;;;;;;;5070162;27;20513;-76
2022/03/04 13:05:46;;;;;;;12.75;4.95;;;;;;;;;;5086928;27;20044;-77
2022/03/04 13:08:15;;;;;;;9.20;5.03;;;;;;;;;;5072259;27;20492;-77
2022/03/04 13:10:41;;;;;;;9.32;5.00;;;;;;;;;;5091642;27;20044;-78
2022/03/04 13:13:07;;;;;;;9.32;4.53;;;;;;;;;;5075591;27;20055;-75
2022/03/04 13:15:34;;;;;;;11.27;4.40;;;;;;;;;;5078134;27;20120;-75
2022/03/04 13:18:00;;;;;;;10.27;4.60;;;;;;;;;;5088211;27;20814;-75
2022/03/04 13:20:27;;;;;;;11.93;4.78;;;;;;;;;;5074715;28;20036;-74
2022/03/04 13:23:06;;;;;;;13.48;5.13;;;;;;;;;;5072939;27;20048;-74
2022/03/04 13:25:32;;;;;;;10.25;5.10;;;;;;;;;;5092791;27;20039;-74
2022/03/04 13:27:58;;;;;;;12.38;6.32;;;;;;;;;;5080823;27;20039;-74
2022/03/04 13:30:25;;;;;;;11.57;5.93;;;;;;;;;;5088427;27;20116;-74
2022/03/04 13:32:54;;;;;;;10.07;4.93;;;;;;;;;;5075612;27;20041;-74
2022/03/04 13:35:22;;;;;;;9.57;4.47;;;;;;;;;;5071407;28;20051;-81
2022/03/04 13:37:48;;;;;;;11.20;4.60;;;;;;;;;;5073070;27;20036;-81
2022/03/04 13:40:16;;;;;;;7.10;3.88;;;;;;;;;;5063611;28;20604;-75
2022/03/04 13:42:44;;;;;;;5.72;3.67;;;;;;;;;;5070844;28;20044;-76
2022/03/04 13:45:14;;;;;;;8.07;3.75;;;;;;;;;;5073153;27;20142;-75
2022/03/04 13:47:42;;;;;;;8.05;3.83;;;;;;;;;;5097769;27;20109;-75
2022/03/04 13:50:17;;;;;;;5.78;3.42;;;;;;;;;;5070876;27;20062;-76
2022/03/04 13:52:54;;;;;;;8.02;3.47;;;;;;;;;;5073892;28;20044;-75
2022/03/04 13:55:29;;;;;;;6.38;2.97;;;;;;;;;;5083551;27;20538;-76
2022/03/04 13:57:58;;;;;;;7.75;3.40;;;;;;;;;;5075392;28;20051;-76
2022/03/04 14:00:31;;;;;;;6.57;3.22;;;;;;;;;;5069443;27;20045;-75
2022/03/04 14:03:02;;;;;;;5.25;2.53;;;;;;;;;;5065901;27;20060;-76
2022/03/04 14:05:30;;;;;;;5.28;2.70;;;;;;;;;;5095854;27;20047;-76
2022/03/04 14:08:04;;;;;;;5.95;3.58;;;;;;;;;;5072109;27;20049;-72
2022/03/04 14:10:31;;;;;;;8.57;3.13;;;;;;;;;;5070206;28;20089;-73
2022/03/04 14:12:57;;;;;;;5.38;3.03;;;;;;;;;;5087764;27;20534;-73
2022/03/04 14:15:23;;;;;;;9.07;4.03;;;;;;;;;;5071957;27;20051;-72
2022/03/04 14:17:52;;;;;;;5.00;3.08;;;;;;;;;;5068011;27;20029;-73
2022/03/04 14:20:18;;;;;;;9.25;3.97;;;;;;;;;;5088759;27;20076;-73
2022/03/04 14:22:44;;;;;;;8.82;3.33;;;;;;;;;;5070344;27;20045;-72
2022/03/04 14:25:10;;;;;;;5.63;2.70;;;;;;;;;;5067833;28;20098;-73
2022/03/04 14:27:38;;;;;;;5.90;3.65;;;;;;;;;;5074771;27;20560;-72
2022/03/04 14:30:04;;;;;;;5.57;3.28;;;;;;;;;;5066803;27;20051;-73
2022/03/04 14:32:31;;;;;;;6.30;3.75;;;;;;;;;;5088610;27;20044;-73
2022/03/04 14:34:57;;;;;;;7.03;3.63;;;;;;;;;;5075108;28;20048;-72
2022/03/04 14:37:23;;;;;;;6.32;3.13;;;;;;;;;;5088208;27;20043;-72